VOY2112 EIYY-LIEE
Flight info
| Callsign | VOY2112 |
|---|---|
| Flight time | N/A |
| Altitude | 3000 |
| Route | EESE2 CAG09 |
| Aircraft | C172/L-VGD/A |
Departure
| Time | N/A |
|---|---|
| Airport | EIYY |
Arrival
| Time | 2026-04-30 06:39 |
|---|---|
| Airport | Cagliari Elmas Airport (LIEE) |
| Time | Latitude | Longitude | Altitude | Speed | Heading |
|---|---|---|---|---|---|
| 2026-04-30 06:13 | 39.49989 | 9.61255 | 32 ft | 0 kts | 64° |
| 2026-04-30 06:17 | 39.49994 | 9.61270 | 32 ft | 5 kts | 79° |
| 2026-04-30 06:17 | 39.49989 | 9.61285 | 32 ft | 0 kts | 172° |
| 2026-04-30 06:18 | 39.49875 | 9.61263 | 37 ft | 41 kts | 192° |
| 2026-04-30 06:18 | 39.49526 | 9.61166 | 166 ft | 50 kts | 193° |
| 2026-04-30 06:18 | 39.49189 | 9.60972 | 262 ft | 59 kts | 201° |
| 2026-04-30 06:18 | 39.48760 | 9.60736 | 383 ft | 72 kts | 204° |
| 2026-04-30 06:19 | 39.48299 | 9.60470 | 596 ft | 73 kts | 204° |
| 2026-04-30 06:19 | 39.47764 | 9.60250 | 703 ft | 91 kts | 173° |
| 2026-04-30 06:19 | 39.47122 | 9.60470 | 809 ft | 101 kts | 183° |
| 2026-04-30 06:19 | 39.46406 | 9.60298 | 934 ft | 108 kts | 191° |
| 2026-04-30 06:20 | 39.45657 | 9.60113 | 1064 ft | 111 kts | 192° |
| 2026-04-30 06:20 | 39.44889 | 9.59912 | 1193 ft | 114 kts | 192° |
| 2026-04-30 06:20 | 39.44136 | 9.59622 | 1315 ft | 113 kts | 212° |
| 2026-04-30 06:20 | 39.43491 | 9.59035 | 1441 ft | 113 kts | 214° |
| 2026-04-30 06:21 | 39.42832 | 9.58469 | 1566 ft | 114 kts | 214° |
| 2026-04-30 06:21 | 39.42169 | 9.57909 | 1694 ft | 114 kts | 213° |
| 2026-04-30 06:21 | 39.41497 | 9.57347 | 1820 ft | 115 kts | 213° |
| 2026-04-30 06:21 | 39.40821 | 9.56786 | 1946 ft | 116 kts | 213° |
| 2026-04-30 06:22 | 39.40145 | 9.56224 | 2069 ft | 115 kts | 213° |
| 2026-04-30 06:22 | 39.39472 | 9.55668 | 2195 ft | 115 kts | 213° |
| 2026-04-30 06:22 | 39.38801 | 9.55112 | 2318 ft | 115 kts | 213° |
| 2026-04-30 06:22 | 39.38129 | 9.54556 | 2445 ft | 114 kts | 213° |
| 2026-04-30 06:23 | 39.37461 | 9.54004 | 2568 ft | 114 kts | 213° |
| 2026-04-30 06:23 | 39.36801 | 9.53459 | 2690 ft | 114 kts | 213° |
| 2026-04-30 06:23 | 39.36132 | 9.52906 | 2817 ft | 114 kts | 213° |
| 2026-04-30 06:23 | 39.35466 | 9.52355 | 2937 ft | 113 kts | 213° |
| 2026-04-30 06:24 | 39.34791 | 9.51797 | 2999 ft | 119 kts | 213° |
| 2026-04-30 06:24 | 39.34079 | 9.51208 | 3005 ft | 124 kts | 213° |
| 2026-04-30 06:24 | 39.33339 | 9.50596 | 3010 ft | 127 kts | 213° |
| 2026-04-30 06:24 | 39.32589 | 9.49976 | 3012 ft | 128 kts | 213° |
| 2026-04-30 06:25 | 39.31834 | 9.49353 | 3010 ft | 129 kts | 213° |
| 2026-04-30 06:25 | 39.31080 | 9.48731 | 3010 ft | 128 kts | 213° |
| 2026-04-30 06:25 | 39.30326 | 9.48108 | 3013 ft | 130 kts | 213° |
| 2026-04-30 06:25 | 39.29564 | 9.47479 | 3012 ft | 130 kts | 213° |
| 2026-04-30 06:26 | 39.28801 | 9.46850 | 3008 ft | 129 kts | 213° |
| 2026-04-30 06:26 | 39.28046 | 9.46227 | 3007 ft | 129 kts | 213° |
| 2026-04-30 06:26 | 39.27292 | 9.45606 | 3007 ft | 129 kts | 213° |
| 2026-04-30 06:26 | 39.26539 | 9.44986 | 3006 ft | 128 kts | 213° |
| 2026-04-30 06:27 | 39.25784 | 9.44364 | 3007 ft | 129 kts | 213° |
| 2026-04-30 06:27 | 39.25026 | 9.43740 | 3008 ft | 129 kts | 213° |
| 2026-04-30 06:27 | 39.24265 | 9.43113 | 3008 ft | 130 kts | 213° |
| 2026-04-30 06:27 | 39.23504 | 9.42486 | 3007 ft | 129 kts | 213° |
| 2026-04-30 06:28 | 39.22755 | 9.41870 | 3009 ft | 130 kts | 213° |
| 2026-04-30 06:28 | 39.21992 | 9.41243 | 3010 ft | 130 kts | 213° |
| 2026-04-30 06:28 | 39.21229 | 9.40615 | 3008 ft | 130 kts | 213° |
| 2026-04-30 06:28 | 39.20468 | 9.39989 | 3008 ft | 130 kts | 213° |
| 2026-04-30 06:29 | 39.19709 | 9.39365 | 3008 ft | 130 kts | 213° |
| 2026-04-30 06:29 | 39.18950 | 9.38741 | 3007 ft | 129 kts | 213° |
| 2026-04-30 06:29 | 39.18192 | 9.38119 | 3009 ft | 129 kts | 213° |
| 2026-04-30 06:29 | 39.17433 | 9.37491 | 3007 ft | 129 kts | 215° |
| 2026-04-30 06:30 | 39.16946 | 9.36559 | 2994 ft | 128 kts | 257° |
| 2026-04-30 06:30 | 39.16824 | 9.35426 | 2995 ft | 128 kts | 262° |
| 2026-04-30 06:30 | 39.16690 | 9.34297 | 2996 ft | 128 kts | 260° |
| 2026-04-30 06:30 | 39.16523 | 9.33176 | 2997 ft | 128 kts | 258° |
| 2026-04-30 06:31 | 39.16341 | 9.32056 | 2997 ft | 128 kts | 258° |
| 2026-04-30 06:31 | 39.16154 | 9.30938 | 2997 ft | 128 kts | 257° |
| 2026-04-30 06:31 | 39.15965 | 9.29821 | 2997 ft | 128 kts | 257° |
| 2026-04-30 06:31 | 39.15774 | 9.28704 | 2997 ft | 128 kts | 257° |
| 2026-04-30 06:32 | 39.15583 | 9.27585 | 2997 ft | 128 kts | 257° |
| 2026-04-30 06:32 | 39.15393 | 9.26469 | 2997 ft | 128 kts | 257° |
| 2026-04-30 06:32 | 39.15202 | 9.25353 | 2997 ft | 128 kts | 257° |
| 2026-04-30 06:32 | 39.15011 | 9.24235 | 2997 ft | 128 kts | 257° |
| 2026-04-30 06:33 | 39.14820 | 9.23117 | 2997 ft | 128 kts | 257° |
| 2026-04-30 06:33 | 39.14629 | 9.22000 | 2997 ft | 128 kts | 257° |
| 2026-04-30 06:33 | 39.14437 | 9.20882 | 2997 ft | 128 kts | 257° |
| 2026-04-30 06:33 | 39.14246 | 9.19764 | 2997 ft | 128 kts | 257° |
| 2026-04-30 06:34 | 39.14054 | 9.18646 | 2997 ft | 128 kts | 257° |
| 2026-04-30 06:34 | 39.13865 | 9.17529 | 2996 ft | 127 kts | 260° |
| 2026-04-30 06:34 | 39.14048 | 9.16450 | 2995 ft | 127 kts | 304° |
| 2026-04-30 06:34 | 39.14731 | 9.15736 | 2997 ft | 128 kts | 325° |
| 2026-04-30 06:35 | 39.15441 | 9.15119 | 2993 ft | 116 kts | 325° |
| 2026-04-30 06:35 | 39.16050 | 9.14585 | 2943 ft | 95 kts | 326° |
| 2026-04-30 06:35 | 39.16614 | 9.14128 | 2722 ft | 88 kts | 326° |
| 2026-04-30 06:35 | 39.17135 | 9.13710 | 2436 ft | 92 kts | 334° |
| 2026-04-30 06:36 | 39.17777 | 9.13305 | 2198 ft | 106 kts | 333° |
| 2026-04-30 06:36 | 39.18430 | 9.12888 | 2033 ft | 105 kts | 332° |
| 2026-04-30 06:36 | 39.19044 | 9.12418 | 1759 ft | 99 kts | 323° |
| 2026-04-30 06:36 | 39.19563 | 9.11868 | 1575 ft | 94 kts | 316° |
| 2026-04-30 06:37 | 39.20020 | 9.11306 | 1439 ft | 89 kts | 315° |
| 2026-04-30 06:37 | 39.20483 | 9.10756 | 1230 ft | 93 kts | 317° |
| 2026-04-30 06:37 | 39.20979 | 9.10220 | 1072 ft | 91 kts | 319° |
| 2026-04-30 06:37 | 39.21442 | 9.09698 | 914 ft | 89 kts | 316° |
| 2026-04-30 06:38 | 39.21920 | 9.09139 | 704 ft | 92 kts | 320° |
| 2026-04-30 06:38 | 39.22386 | 9.08624 | 646 ft | 84 kts | 318° |
| 2026-04-30 06:38 | 39.22818 | 9.08125 | 523 ft | 84 kts | 314° |
| 2026-04-30 06:38 | 39.23271 | 9.07612 | 312 ft | 87 kts | 318° |
| 2026-04-30 06:39 | 39.23697 | 9.07115 | 183 ft | 79 kts | 316° |
| 2026-04-30 06:39 | 39.24091 | 9.06659 | 65 ft | 74 kts | 317° |
| 2026-04-30 06:39 | 39.24441 | 9.06240 | 13 ft | 63 kts | 316° |
| 2026-04-30 06:39 | 39.24725 | 9.05907 | 12 ft | 36 kts | 326° |
| 2026-04-30 06:40 | 39.24783 | 9.05870 | 13 ft | 2 kts | 337° |
| 2026-04-30 06:40 | 39.24796 | 9.05859 | 14 ft | 7 kts | 319° |
| 2026-04-30 06:40 | 39.24836 | 9.05794 | 14 ft | 9 kts | 307° |
| 2026-04-30 06:40 | 39.24870 | 9.05739 | 14 ft | 7 kts | 316° |
| 2026-04-30 06:41 | 39.24905 | 9.05698 | 14 ft | 6 kts | 318° |
| 2026-04-30 06:41 | 39.24934 | 9.05666 | 14 ft | 5 kts | 322° |
| 2026-04-30 06:41 | 39.24956 | 9.05647 | 14 ft | 3 kts | 326° |
| 2026-04-30 06:41 | 39.24979 | 9.05625 | 15 ft | 6 kts | 321° |
| 2026-04-30 06:42 | 39.25022 | 9.05597 | 15 ft | 7 kts | 347° |
| 2026-04-30 06:42 | 39.25061 | 9.05624 | 14 ft | 7 kts | 56° |
| 2026-04-30 06:42 | 39.25086 | 9.05678 | 14 ft | 7 kts | 59° |
| 2026-04-30 06:42 | 39.25102 | 9.05710 | 14 ft | 6 kts | 53° |
| 2026-04-30 06:43 | 39.25127 | 9.05749 | 13 ft | 5 kts | 46° |
| 2026-04-30 06:43 | 39.25152 | 9.05778 | 13 ft | 4 kts | 39° |
| 2026-04-30 06:43 | 39.25162 | 9.05789 | 13 ft | 3 kts | 33° |
| 2026-04-30 06:43 | 39.25181 | 9.05813 | 13 ft | 4 kts | 47° |
| 2026-04-30 06:44 | 39.25203 | 9.05827 | 13 ft | 3 kts | 354° |
| 2026-04-30 06:44 | 39.25215 | 9.05821 | 13 ft | 0 kts | 336° |
| 2026-04-30 06:44 | 39.25220 | 9.05818 | 13 ft | 3 kts | 327° |
| 2026-04-30 06:45 | 39.25244 | 9.05788 | 13 ft | 6 kts | 309° |
| 2026-04-30 06:45 | 39.25270 | 9.05750 | 13 ft | 6 kts | 321° |
| 2026-04-30 06:45 | 39.25304 | 9.05740 | 13 ft | 5 kts | 18° |
| 2026-04-30 06:45 | 39.25325 | 9.05762 | 13 ft | 3 kts | 45° |
| 2026-04-30 06:46 | 39.25330 | 9.05785 | 13 ft | 2 kts | 86° |
| 2026-04-30 06:46 | 39.25331 | 9.05803 | 13 ft | 0 kts | 86° |